Santa Monica, CA

10:15 AM PDT on September 22, 2014 (GMT -0700)
Santa Monica Municipal | Change Station
CLOSE
Current Station
Airport
Location: Santa Monica,
Elevation: 174 ft
Nearby Weather Stations

Elev 174 ft 34.02 °N, 118.45 °W | Updated 1 hour ago

Partly Cloudy
Partly Cloudy
69 °F
Feels Like 69 °F
N
0
Wind Variable Wind from North

Today
High -- | Low -- °F
--% Chance of Precip.
Yesterday
High -- | Low -- °F
Precip. -- in
6:41 AM 6:50 PM
Waning Crescent, 2% visible
Pressure 29.99 in
Visibility 9.0 miles
Clouds Scattered Clouds 900 ft
Dew Point 62 °F
Humidity 78%
Rainfall 0.00 in
Snow Depth 0 in , 0 in , 0 in
UV 2 out of 12
Pollen 6.60 out of 12
Ozone Good
Flu Activity Not available.
METAR KSMO 221551Z 00000KT 9SM SCT009 21/17 A2999 RMK AO2 SLP154 T02060167 $

More Conditions Fewer Conditions

Pressure 29.99 in
Visibility 9.0 miles
Clouds Scattered Clouds 900 ft
Dew Point 62 °F
Humidity 78%
Rainfall 0.00 in
Snow Depth 0 in , 0 in , 0 in
UV 2 out of 12
Pollen 6.60 out of 12
Ozone Good
Flu Activity Not available.
METAR KSMO 221551Z 00000KT 9SM SCT009 21/17 A2999 RMK AO2 SLP154 T02060167 $

More Conditions Fewer Conditions

10-Day Weather Forecast

Almanac

Astronomy

Sep. 22, 2014 Rise Set
Actual Time 6:41 AM PDT 6:50 PM PDT
Civil Twilight 6:16 AM PDT 7:15 PM PDT
Nautical Twilight 5:47 AM PDT 7:44 PM PDT
Astronomical Twilight 5:18 AM PDT 8:13 PM PDT
Moon 5:17 AM PDT 5:59 PM PDT
Length of Visible Light 12h 58m
Length of Day
12h 08m
Tomorrow will be 2m 6s shorter.
Waning Crescent, 2% of the Moon is Illuminated
Today
Waning Crescent
Sep 24
New
Oct 1
First Quarter
Oct 8
Full
Oct 15
Last Quarter

Today's Extremes

State Highs State Lows

Community

WunderPhotos

Upload Photos

1,755,490 photos uploaded!

WunderBlogs® & News

Nearby

Air Quality

  Air Quality AQ Index Pollutant
Yesterday Good
OZONE
Current Good
OZONE
Monday Good
PM10
Monday Good
OZONE
Monday Good
CO
Monday Good
NO2

Snow Depth

Station Depth Elevation
Poison Flat 0 in 7900 ft
Ebbetts Pass 0 in 8700 ft
Carson Pass 7 in 8500 ft
Heavenly Valley 0 in 8850 ft
Summit Meadow 0 in 9122 ft

Earthquake Activity

City Distance Mag. Time & Date
Big Bear Lake, California 83 miles 2.5 7:26 AM PDT
2014-09-22
Aguanga, California 102 miles 2.5 1:38 AM PDT
2014-09-19
Minimum magnitude displayed is 2.5.

Coastal Water Temperatures

Place Temperature
Santa Monica Pier 69.1 °F
Los Angeles, CA 66.9 °F
La Jolla, CA 69.1 °F

Nearby Weather Stations